createdAt,value
2022-12-19T00:01:59.793Z,98960.34
2022-12-19T00:04:27.956Z,98959.53
2022-12-19T00:06:58.258Z,98959.53
2022-12-19T00:09:26.453Z,98957.78
2022-12-19T00:11:54.636Z,98958.72
2022-12-19T00:14:22.732Z,98960.56
2022-12-19T00:16:52.277Z,98959.66
2022-12-19T00:19:21.284Z,98961.47
2022-12-19T00:21:49.492Z,98964.25
2022-12-19T00:24:20.900Z,98966.84
2022-12-19T00:26:49.747Z,98966.94
2022-12-19T00:29:17.961Z,98974.19
2022-12-19T00:31:46.124Z,98979.63
2022-12-19T00:34:17.355Z,98976.13
2022-12-19T00:36:45.527Z,98975.25
2022-12-19T00:39:13.643Z,98978.81
2022-12-19T00:41:42.515Z,98977.00
2022-12-19T00:44:12.942Z,98979.69
2022-12-19T00:46:42.157Z,98987.75
2022-12-19T00:49:10.333Z,98986.91
2022-12-19T00:51:39.931Z,98977.00
2022-12-19T00:54:11.283Z,98976.19
2022-12-19T00:56:40.069Z,98968.09
2022-12-19T00:59:08.915Z,98962.72
2022-12-19T01:01:38.447Z,98961.88
2022-12-19T01:07:01.646Z,98943.97
2022-12-19T01:09:33.156Z,98950.31
2022-12-19T01:12:18.493Z,98960.19
2022-12-19T01:14:46.775Z,98951.22
2022-12-19T01:17:14.944Z,98946.81
2022-12-19T01:19:44.526Z,98952.22
2022-12-19T01:22:14.489Z,98953.19
2022-12-19T01:24:42.810Z,98960.38
2022-12-19T01:27:10.975Z,98954.09
2022-12-19T01:29:51.841Z,98952.38
2022-12-19T01:32:21.542Z,98940.72
2022-12-19T01:34:49.773Z,98909.44
2022-12-19T01:37:22.384Z,98928.25
2022-12-19T01:39:50.608Z,98922.88
2022-12-19T01:42:23.466Z,98903.16
2022-12-19T01:45:33.453Z,98897.78
2022-12-19T01:48:06.398Z,98902.28
2022-12-19T01:50:37.893Z,98907.66
2022-12-19T01:53:11.473Z,98917.53
2022-12-19T01:55:40.283Z,98915.78
2022-12-19T01:58:08.547Z,98914.91
2022-12-19T02:00:36.762Z,98900.59
2022-12-19T02:03:07.789Z,98885.34
2022-12-19T02:05:38.809Z,98889.00
2022-12-19T02:08:07.080Z,98886.28
2022-12-19T02:10:37.096Z,98907.81
2022-12-19T02:13:06.351Z,98906.91
2022-12-19T02:15:36.381Z,98915.00
2022-12-19T02:18:07.970Z,98907.00
2022-12-19T02:21:05.435Z,98895.34
2022-12-19T02:23:55.660Z,98885.50
2022-12-19T02:26:37.935Z,98874.78
2022-12-19T02:29:20.252Z,98874.78
2022-12-19T02:31:50.267Z,98868.53
2022-12-19T02:34:22.043Z,98878.41
2022-12-19T02:37:01.749Z,98886.47
2022-12-19T02:39:33.219Z,98880.22
2022-12-19T02:42:03.179Z,98879.34
2022-12-19T02:44:35.062Z,98871.28
2022-12-19T02:47:05.642Z,98865.91
2022-12-19T02:49:36.019Z,98866.84
2022-12-19T02:52:11.492Z,98867.78
2022-12-19T02:54:45.164Z,98873.16
2022-12-19T02:57:19.015Z,98881.22
2022-12-19T02:59:53.651Z,98891.13
2022-12-19T03:02:29.241Z,98883.06
2022-12-19T03:04:59.648Z,98868.72
2022-12-19T03:07:31.078Z,98870.53
2022-12-19T03:10:03.386Z,98866.97
2022-12-19T03:12:33.345Z,98856.28
2022-12-19T03:15:01.576Z,98855.47
2022-12-19T03:17:31.427Z,98847.41
2022-12-19T03:19:59.920Z,98851.91
2022-12-19T03:22:28.107Z,98853.75
2022-12-19T03:24:56.242Z,98854.59
2022-12-19T03:27:27.037Z,98855.56
2022-12-19T03:29:56.328Z,98861.81
2022-12-19T03:32:24.474Z,98856.44
2022-12-19T03:34:55.201Z,98864.50
2022-12-19T03:37:25.021Z,98855.56
2022-12-19T03:39:55.657Z,98851.06
2022-12-19T03:42:44.395Z,98851.09
2022-12-19T03:45:12.862Z,98852.94
2022-12-19T03:47:43.030Z,98850.25
2022-12-19T03:50:12.695Z,98848.47
2022-12-19T03:52:43.070Z,98851.16
2022-12-19T03:55:13.725Z,98852.97
2022-12-19T03:57:43.052Z,98855.66
2022-12-19T04:00:12.866Z,98856.63
2022-12-19T04:02:42.597Z,98845.06
2022-12-19T04:05:13.319Z,98853.13
2022-12-19T04:07:41.531Z,98851.31
2022-12-19T04:10:11.963Z,98852.16
2022-12-19T04:12:41.793Z,98853.13
2022-12-19T04:15:18.320Z,98851.34
2022-12-19T04:17:48.061Z,98841.56
2022-12-19T04:20:18.046Z,98844.25
2022-12-19T04:22:50.238Z,98842.47
2022-12-19T04:25:19.928Z,98824.56
2022-12-19T04:27:50.245Z,98824.63
2022-12-19T04:30:18.866Z,98830.00
2022-12-19T04:32:47.146Z,98823.75
2022-12-19T04:35:15.535Z,98818.38
2022-12-19T04:37:45.151Z,98830.94
2022-12-19T04:40:14.396Z,98823.81
2022-12-19T04:42:42.656Z,98820.19
2022-12-19T04:45:11.530Z,98826.50
2022-12-19T04:47:39.851Z,98819.38
2022-12-19T04:50:08.415Z,98825.63
2022-12-19T04:52:36.644Z,98819.38
2022-12-19T04:55:07.118Z,98817.63
2022-12-19T04:57:35.390Z,98816.75
2022-12-19T05:00:05.110Z,98813.19
2022-12-19T05:02:33.468Z,98812.34
2022-12-19T05:05:01.741Z,98823.09
2022-12-19T05:07:29.948Z,98820.41
2022-12-19T05:10:00.865Z,98814.13
2022-12-19T05:12:31.190Z,98824.88
2022-12-19T05:14:59.363Z,98821.25
2022-12-19T05:17:27.470Z,98817.72
2022-12-19T05:19:55.663Z,98812.34
2022-12-19T05:22:23.796Z,98816.81
2022-12-19T05:24:51.990Z,98819.44
2022-12-19T05:27:20.170Z,98820.41
2022-12-19T05:29:49.716Z,98823.00
2022-12-19T05:32:17.967Z,98826.63
2022-12-19T05:34:46.126Z,98823.09
2022-12-19T05:37:14.256Z,98820.44
2022-12-19T05:39:42.353Z,98808.84
2022-12-19T05:42:12.486Z,98803.47
2022-12-19T05:44:40.946Z,98807.06
2022-12-19T05:47:10.451Z,98808.84
2022-12-19T05:49:38.616Z,98810.63
2022-12-19T05:52:06.903Z,98821.38
2022-12-19T05:54:35.136Z,98817.81
2022-12-19T05:57:03.361Z,98817.81
2022-12-19T05:59:31.537Z,98814.22
2022-12-19T06:01:59.719Z,98816.91
2022-12-19T06:04:30.562Z,98813.31
2022-12-19T06:06:58.708Z,98821.44
2022-12-19T06:09:27.165Z,98819.59
2022-12-19T06:11:55.316Z,98821.44
2022-12-19T06:14:24.043Z,98835.72
2022-12-19T06:16:53.094Z,98834.81
2022-12-19T06:19:21.675Z,98823.19
2022-12-19T06:21:51.184Z,98820.50
2022-12-19T06:24:19.415Z,98825.88
2022-12-19T06:26:47.521Z,98832.13
2022-12-19T06:29:16.224Z,98824.97
2022-12-19T06:31:44.649Z,98827.66
2022-12-19T06:34:27.118Z,98818.75
2022-12-19T06:37:07.821Z,98822.28
2022-12-19T06:39:38.809Z,98823.19
2022-12-19T06:42:24.430Z,98816.00
2022-12-19T06:44:54.093Z,98814.22
2022-12-19T06:47:22.947Z,98828.47
2022-12-19T06:49:51.758Z,98833.84
2022-12-19T06:52:22.457Z,98833.75
2022-12-19T06:54:50.717Z,98841.06
2022-12-19T06:57:18.844Z,98842.00
2022-12-19T06:59:47.059Z,98826.69
2022-12-19T07:02:23.422Z,98824.75
2022-12-19T07:04:52.730Z,98830.94
2022-12-19T07:07:22.338Z,98824.56
2022-12-19T07:09:50.540Z,98830.75
2022-12-19T07:12:18.643Z,98835.22
2022-12-19T07:14:51.711Z,98830.66
2022-12-19T07:17:21.542Z,98830.75
2022-12-19T07:19:52.765Z,98828.94
2022-12-19T07:22:22.298Z,98832.50
2022-12-19T07:24:50.518Z,98836.00
2022-12-19T07:27:18.665Z,98845.88
2022-12-19T07:29:46.819Z,98837.88
2022-12-19T07:32:14.955Z,98846.78
2022-12-19T07:34:43.132Z,98843.25
2022-12-19T07:37:11.222Z,98847.75
2022-12-19T07:39:40.800Z,98848.63
2022-12-19T07:42:08.905Z,98855.00
2022-12-19T07:44:40.112Z,98859.56
2022-12-19T07:47:11.055Z,98844.38
2022-12-19T07:49:39.268Z,98845.25
2022-12-19T07:52:08.510Z,98844.38
2022-12-19T07:54:37.385Z,98849.72
2022-12-19T07:57:07.074Z,98856.94
2022-12-19T07:59:39.015Z,98866.75
2022-12-19T08:02:08.071Z,98860.38
2022-12-19T08:04:36.359Z,98857.69
2022-12-19T08:07:04.598Z,98861.28
2022-12-19T08:09:32.897Z,98867.63
2022-12-19T08:12:01.062Z,98870.41
2022-12-19T08:14:30.547Z,98872.38
2022-12-19T08:19:46.831Z,98867.00
2022-12-19T08:22:15.040Z,98865.53
2022-12-19T08:24:43.233Z,98862.03
2022-12-19T08:27:11.894Z,98870.03
2022-12-19T08:29:41.523Z,98871.78
2022-12-19T08:32:09.639Z,98867.28
2022-12-19T08:34:37.839Z,98870.84
2022-12-19T08:37:06.097Z,98878.91
2022-12-19T08:39:34.275Z,98871.59
2022-12-19T08:42:02.405Z,98869.75
2022-12-19T08:44:30.733Z,98873.25
2022-12-19T08:47:00.219Z,98861.53
2022-12-19T08:49:28.426Z,98871.38
2022-12-19T08:51:56.563Z,98865.94
2022-12-19T08:54:24.813Z,98866.75
2022-12-19T08:56:53.032Z,98857.75
2022-12-19T08:59:30.609Z,98872.94
2022-12-19T09:02:01.311Z,98870.13
2022-12-19T09:06:00.543Z,98864.75
2022-12-19T09:07:17.915Z,98859.31
2022-12-19T09:09:46.070Z,98861.03
2022-12-19T09:12:14.362Z,98861.25
2022-12-19T09:14:44.218Z,98866.66
2022-12-19T09:17:13.898Z,98869.34
2022-12-19T09:19:47.112Z,98872.84
2022-12-19T09:22:16.959Z,98871.13
2022-12-19T09:24:45.336Z,98870.16
2022-12-19T09:27:14.152Z,98876.34
2022-12-19T09:29:43.532Z,98872.75
2022-12-19T09:32:13.260Z,98870.88
2022-12-19T09:34:41.441Z,98873.56
2022-12-19T09:37:10.420Z,98877.97
2022-12-19T09:39:45.304Z,98869.00
2022-12-19T09:42:19.970Z,98869.91
2022-12-19T09:45:02.214Z,98862.81
2022-12-19T09:47:32.309Z,98859.22
2022-12-19T09:50:00.816Z,98862.88
2022-12-19T09:52:33.086Z,98857.44
2022-12-19T09:55:04.320Z,98855.56
2022-12-19T09:57:37.502Z,98852.88
2022-12-19T10:00:07.225Z,98847.56
2022-12-19T10:02:40.444Z,98840.34
2022-12-19T10:05:40.585Z,98844.00
2022-12-19T10:08:09.474Z,98836.84
2022-12-19T10:12:38.371Z,98836.84
2022-12-19T10:13:38.078Z,98836.84
2022-12-19T10:16:11.811Z,98840.41
2022-12-19T10:18:52.667Z,98833.25
2022-12-19T10:22:07.482Z,98837.66
2022-12-19T10:25:08.086Z,98842.84
2022-12-19T10:27:58.703Z,98832.25
2022-12-19T10:30:29.131Z,98830.47
2022-12-19T10:33:04.222Z,98831.38
2022-12-19T10:35:35.271Z,98826.72
2022-12-19T10:38:13.545Z,98820.41
2022-12-19T10:40:44.306Z,98814.00
2022-12-19T10:43:20.473Z,98813.03
2022-12-19T10:46:00.469Z,98807.63
2022-12-19T10:48:30.769Z,98802.19
2022-12-19T10:51:06.190Z,98807.56
2022-12-19T10:53:34.959Z,98802.25
2022-12-19T10:56:03.725Z,98796.69
2022-12-19T10:58:34.581Z,98796.69
2022-12-19T11:01:14.003Z,98796.69
2022-12-19T11:03:43.601Z,98790.50
2022-12-19T11:06:47.500Z,98794.13
2022-12-19T11:09:27.668Z,98778.94
2022-12-19T11:16:25.975Z,98784.41
2022-12-19T11:18:51.955Z,98780.84
2022-12-19T11:23:02.393Z,98770.09
2022-12-19T11:29:32.624Z,98780.84
2022-12-19T11:29:46.778Z,98787.09
2022-12-19T11:30:38.059Z,98774.50
2022-12-19T11:30:47.446Z,98779.88
2022-12-19T11:32:31.547Z,98777.19
2022-12-19T11:34:35.624Z,98778.16
2022-12-19T11:37:08.236Z,98772.78
2022-12-19T11:39:41.606Z,98766.44
2022-12-19T11:42:12.280Z,98773.69
2022-12-19T11:44:41.740Z,98775.56
2022-12-19T11:47:14.421Z,98772.16
2022-12-19T11:49:43.787Z,98763.28
2022-12-19T11:52:54.066Z,98767.75
2022-12-19T11:55:07.408Z,98757.84
2022-12-19T11:57:35.562Z,98755.94
2022-12-19T12:00:05.703Z,98746.16
2022-12-19T12:02:44.018Z,98747.09
2022-12-19T12:05:31.112Z,98748.84
2022-12-19T12:10:14.485Z,98753.28
2022-12-19T12:14:14.902Z,98754.06
2022-12-19T12:22:25.408Z,98752.28
2022-12-19T12:29:39.833Z,98754.88
2022-12-19T12:31:06.541Z,98753.00
2022-12-19T12:31:20.142Z,98749.47
2022-12-19T12:31:40.920Z,98738.72
2022-12-19T12:31:45.497Z,98731.50
2022-12-19T12:35:38.193Z,98719.88
2022-12-19T12:40:49.253Z,98711.88
2022-12-19T12:43:22.880Z,98707.44
2022-12-19T12:45:52.531Z,98703.00
2022-12-19T12:48:23.660Z,98710.13
2022-12-19T12:50:55.249Z,98703.75
2022-12-19T12:53:26.792Z,98687.47
2022-12-19T12:55:56.409Z,98686.47
2022-12-19T12:58:45.511Z,98692.72
2022-12-19T13:01:17.421Z,98691.13
2022-12-19T13:03:52.768Z,98690.31
2022-12-19T13:06:25.803Z,98693.94
2022-12-19T13:08:54.027Z,98686.84
2022-12-19T13:11:54.917Z,98685.06
2022-12-19T13:14:48.416Z,98686.88
2022-12-19T13:17:25.363Z,98688.72
2022-12-19T13:19:55.408Z,98689.63
2022-12-19T13:22:38.047Z,98689.72
2022-12-19T13:25:40.230Z,98687.97
2022-12-19T13:28:16.284Z,98687.97
2022-12-19T13:31:21.456Z,98683.47
2022-12-19T13:34:16.509Z,98683.53
2022-12-19T13:39:56.405Z,98685.25
2022-12-19T13:39:59.745Z,98675.31
2022-12-19T13:42:45.627Z,98671.81
2022-12-19T13:45:15.344Z,98674.50
2022-12-19T13:47:45.100Z,98672.72
2022-12-19T13:50:20.831Z,98670.97
2022-12-19T13:52:51.877Z,98670.97
2022-12-19T13:55:20.009Z,98660.16
2022-12-19T13:57:48.436Z,98670.81
2022-12-19T14:00:19.240Z,98660.97
2022-12-19T14:02:49.892Z,98667.22
2022-12-19T14:05:53.323Z,98675.19
2022-12-19T14:08:17.763Z,98668.94
2022-12-19T14:11:42.874Z,98677.88
2022-12-19T14:14:03.393Z,98679.63
2022-12-19T14:16:39.824Z,98675.13
2022-12-19T14:19:23.152Z,98676.00
2022-12-19T14:22:09.023Z,98675.94
2022-12-19T14:24:41.276Z,98669.63
2022-12-19T14:28:20.039Z,98664.16
2022-12-19T14:30:30.316Z,98674.91
2022-12-19T14:33:47.104Z,98668.59
2022-12-19T14:36:10.133Z,98668.59
2022-12-19T14:39:19.525Z,98664.00
2022-12-19T14:41:42.627Z,98664.00
2022-12-19T14:53:33.958Z,98656.75
2022-12-19T14:54:06.892Z,98660.25
2022-12-19T14:54:10.440Z,98663.88
2022-12-19T14:54:28.081Z,98664.81
2022-12-19T14:56:17.521Z,98665.78
2022-12-19T14:58:53.612Z,98660.41
2022-12-19T15:01:24.438Z,98650.56
2022-12-19T15:04:49.091Z,98644.25
2022-12-19T15:07:09.860Z,98642.47
2022-12-19T15:11:08.384Z,98646.94
2022-12-19T15:14:48.492Z,98648.69
2022-12-19T15:15:41.089Z,98639.69
2022-12-19T15:18:30.329Z,98636.03
2022-12-19T15:20:59.363Z,98643.25
2022-12-19T15:23:27.576Z,98641.41
2022-12-19T15:26:11.491Z,98640.50
2022-12-19T15:28:42.077Z,98639.53
2022-12-19T15:31:19.726Z,98636.00
2022-12-19T15:34:23.399Z,98640.50
2022-12-19T15:36:36.076Z,98632.34
2022-12-19T15:39:04.533Z,98632.34
2022-12-19T15:41:32.653Z,98635.91
2022-12-19T15:44:04.262Z,98634.09
2022-12-19T15:46:33.276Z,98633.22
2022-12-19T15:49:01.495Z,98634.97
2022-12-19T15:51:29.612Z,98639.41
2022-12-19T15:54:22.202Z,98634.91
2022-12-19T15:56:48.540Z,98636.72
2022-12-19T15:59:24.246Z,98637.72
2022-12-19T16:01:52.762Z,98639.97
2022-12-19T16:04:21.301Z,98633.41
2022-12-19T16:06:49.484Z,98631.06
2022-12-19T16:09:20.892Z,98634.03
2022-12-19T16:11:49.297Z,98636.88
2022-12-19T16:14:17.419Z,98633.31
2022-12-19T16:16:47.963Z,98631.34
2022-12-19T16:19:24.338Z,98630.25
2022-12-19T16:21:53.179Z,98624.78
2022-12-19T16:24:21.518Z,98627.31
2022-12-19T16:26:52.471Z,98628.97
2022-12-19T16:29:21.986Z,98633.34
2022-12-19T16:31:51.723Z,98633.19
2022-12-19T16:34:21.612Z,98626.91
2022-12-19T16:36:50.165Z,98621.44
2022-12-19T16:39:18.344Z,98626.72
2022-12-19T16:41:47.124Z,98626.72
2022-12-19T16:44:19.470Z,98630.31
2022-12-19T16:46:51.044Z,98632.03
2022-12-19T16:49:23.036Z,98627.53
2022-12-19T16:51:51.376Z,98621.28
2022-12-19T16:54:20.119Z,98623.03
2022-12-19T16:56:49.306Z,98617.66
2022-12-19T16:59:18.924Z,98614.09
2022-12-19T17:01:47.270Z,98611.34
2022-12-19T17:04:15.800Z,98607.72
2022-12-19T17:06:45.327Z,98608.59
2022-12-19T17:09:15.759Z,98611.22
2022-12-19T17:11:46.486Z,98616.59
2022-12-19T17:14:17.310Z,98622.75
2022-12-19T17:16:45.589Z,98617.38
2022-12-19T17:19:19.196Z,98618.25
2022-12-19T17:21:48.827Z,98616.09
2022-12-19T17:24:16.996Z,98625.69
2022-12-19T17:26:45.213Z,98629.00
2022-12-19T17:29:13.364Z,98628.88
2022-12-19T17:31:41.748Z,98629.59
2022-12-19T17:34:14.547Z,98622.13
2022-12-19T17:36:42.774Z,98628.22
2022-12-19T17:39:19.964Z,98621.78
2022-12-19T17:41:48.458Z,98611.81
2022-12-19T17:44:16.596Z,98607.31
2022-12-19T17:46:44.991Z,98613.50
2022-12-19T17:49:16.912Z,98617.81
2022-12-19T17:51:47.130Z,98620.47
2022-12-19T17:54:16.744Z,98618.56
2022-12-19T17:56:44.961Z,98616.69
2022-12-19T17:59:13.458Z,98629.16
2022-12-19T18:01:42.426Z,98625.47
2022-12-19T18:04:13.388Z,98628.94
2022-12-19T18:06:42.091Z,98631.66
2022-12-19T18:09:20.042Z,98629.75
2022-12-19T18:11:48.277Z,98624.38
2022-12-19T18:14:16.644Z,98625.25
2022-12-19T18:16:45.024Z,98620.72
2022-12-19T18:19:17.273Z,98622.47
2022-12-19T18:21:45.476Z,98624.19
2022-12-19T18:24:14.828Z,98616.09
2022-12-19T18:26:44.443Z,98622.31
2022-12-19T18:29:12.696Z,98633.06
2022-12-19T18:31:46.574Z,98629.53
2022-12-19T18:34:19.428Z,98632.22
2022-12-19T18:36:47.631Z,98640.34
2022-12-19T18:39:22.996Z,98630.56
2022-12-19T18:41:53.957Z,98633.16
2022-12-19T18:44:23.224Z,98633.88
2022-12-19T18:46:51.606Z,98623.91
2022-12-19T18:49:19.904Z,98627.56
2022-12-19T18:51:48.131Z,98624.88
2022-12-19T18:54:17.431Z,98614.97
2022-12-19T18:56:46.126Z,98614.97
2022-12-19T18:59:15.670Z,98614.97
2022-12-19T19:01:44.813Z,98606.03
2022-12-19T19:04:13.324Z,98603.34
2022-12-19T19:06:50.064Z,98613.22
2022-12-19T19:09:19.797Z,98618.59
2022-12-19T19:12:09.794Z,98618.53
2022-12-19T19:14:39.391Z,98611.31
2022-12-19T19:17:07.603Z,98612.28
2022-12-19T19:19:35.863Z,98609.72
2022-12-19T19:22:03.992Z,98613.44
2022-12-19T19:24:32.163Z,98616.13
2022-12-19T19:27:00.275Z,98620.66
2022-12-19T19:29:28.486Z,98609.81
2022-12-19T19:31:58.069Z,98607.25
2022-12-19T19:34:28.015Z,98609.91
2022-12-19T19:36:56.923Z,98601.88
2022-12-19T19:39:25.153Z,98604.66
2022-12-19T19:41:53.712Z,98594.84
2022-12-19T19:44:22.005Z,98597.53
2022-12-19T19:46:50.270Z,98601.09
2022-12-19T19:49:21.225Z,98594.84
2022-12-19T19:51:49.426Z,98599.34
2022-12-19T19:54:17.686Z,98595.88
2022-12-19T19:56:45.842Z,98601.34
2022-12-19T19:59:13.979Z,98594.19
2022-12-19T20:01:42.292Z,98585.25
2022-12-19T20:04:10.551Z,98589.78
2022-12-19T20:06:40.172Z,98584.38
2022-12-19T20:09:08.622Z,98578.03
2022-12-19T20:11:36.937Z,98574.44
2022-12-19T20:14:05.061Z,98578.94
2022-12-19T20:16:33.892Z,98575.34
2022-12-19T20:19:02.218Z,98578.03
2022-12-19T20:21:30.819Z,98583.44
2022-12-19T20:24:00.389Z,98573.53
2022-12-19T20:26:28.619Z,98574.47
2022-12-19T20:28:56.790Z,98575.34
2022-12-19T20:31:25.130Z,98562.88
2022-12-19T20:33:54.842Z,98560.09
2022-12-19T20:36:23.279Z,98562.88
2022-12-19T20:38:51.660Z,98556.59
2022-12-19T20:41:21.620Z,98561.09
2022-12-19T20:43:49.862Z,98565.56
2022-12-19T20:46:19.825Z,98578.03
2022-12-19T20:48:48.104Z,98588.72
2022-12-19T20:51:16.430Z,98581.53
2022-12-19T20:53:44.958Z,98576.94
2022-12-19T20:56:15.454Z,98560.72
2022-12-19T20:58:45.069Z,98548.22
2022-12-19T21:01:14.331Z,98541.97
2022-12-19T21:03:42.954Z,98536.59
2022-12-19T21:06:11.937Z,98533.03
2022-12-19T21:08:40.155Z,98541.09
2022-12-19T21:11:08.657Z,98545.63
2022-12-19T21:13:38.035Z,98538.47
2022-12-19T21:16:08.986Z,98542.94
2022-12-19T21:18:37.329Z,98543.78
2022-12-19T21:21:05.685Z,98537.56
2022-12-19T21:23:34.051Z,98530.41
2022-12-19T21:26:02.694Z,98532.22
2022-12-19T21:28:30.949Z,98529.63
2022-12-19T21:30:59.692Z,98535.97
2022-12-19T21:33:29.306Z,98535.09
2022-12-19T21:35:57.823Z,98535.97
2022-12-19T21:38:26.034Z,98531.59
2022-12-19T21:40:54.153Z,98533.41
2022-12-19T21:43:22.369Z,98531.69
2022-12-19T21:45:50.518Z,98537.06
2022-12-19T21:48:18.758Z,98532.63
2022-12-19T21:50:50.150Z,98525.50
2022-12-19T21:53:18.469Z,98531.81
2022-12-19T21:55:46.640Z,98525.56
2022-12-19T21:58:14.809Z,98520.19
2022-12-19T22:00:43.112Z,98522.06
2022-12-19T22:03:14.551Z,98526.53
2022-12-19T22:05:42.911Z,98528.41
2022-12-19T22:08:12.477Z,98532.03
2022-12-19T22:10:40.821Z,98525.81
2022-12-19T22:13:08.914Z,98524.06
2022-12-19T22:15:37.546Z,98518.72
2022-12-19T22:18:05.733Z,98510.66
2022-12-19T22:20:33.929Z,98520.53
2022-12-19T22:23:02.031Z,98512.56
2022-12-19T22:25:31.580Z,98506.28
2022-12-19T22:27:59.759Z,98505.41
2022-12-19T22:30:27.899Z,98495.63
2022-12-19T22:32:56.090Z,98489.34
2022-12-19T22:35:24.242Z,98488.47
2022-12-19T22:37:52.485Z,98498.38
2022-12-19T22:40:20.696Z,98492.13
2022-12-19T22:42:50.272Z,98481.47
2022-12-19T22:45:18.487Z,98489.53
2022-12-19T22:47:46.690Z,98481.50
2022-12-19T22:50:14.873Z,98470.91
2022-12-19T22:52:43.043Z,98478.09
2022-12-19T22:55:11.491Z,98465.63
2022-12-19T22:57:39.727Z,98461.97
2022-12-19T23:00:11.976Z,98462.94
2022-12-19T23:02:40.379Z,98455.81
2022-12-19T23:05:09.039Z,98462.13
2022-12-19T23:07:37.206Z,98459.44
2022-12-19T23:10:06.043Z,98450.50
2022-12-19T23:12:34.228Z,98455.00
2022-12-19T23:15:02.326Z,98447.03
2022-12-19T23:17:31.916Z,98443.47
2022-12-19T23:20:00.065Z,98446.22
2022-12-19T23:22:28.260Z,98441.88
2022-12-19T23:24:56.460Z,98433.88
2022-12-19T23:27:24.569Z,98437.44
2022-12-19T23:29:52.721Z,98433.88
2022-12-19T23:32:20.937Z,98431.28
2022-12-19T23:34:50.629Z,98433.97
2022-12-19T23:37:18.814Z,98417.03
2022-12-19T23:39:46.915Z,98425.19
2022-12-19T23:42:15.048Z,98432.38
2022-12-19T23:44:43.401Z,98425.25
2022-12-19T23:47:11.522Z,98421.72
2022-12-19T23:49:39.732Z,98419.03
2022-12-19T23:52:09.255Z,98422.66
2022-12-19T23:54:37.589Z,98426.28
2022-12-19T23:57:05.786Z,98422.72
2022-12-19T23:59:33.912Z,98415.59
